Weather observations for the past three days for
Martin County Airport
Imperial (Metric)
Date Time (edt) Wind (mph) Vis. (mi.) Weather Sky Cond. Temperature (ºF) Relative Humidity Wind Chill (°F) Heat Index (°F) Pressure Precipitation (in)
Air Dwpt 6 hour altimeter (in) sea level (mb) 1 hr 3 hr 6 hr
Max. Min.
07 01:15 SW 5 10.00 Fair CLR 69.8 61.5 75% 29.89 0.0
07 00:55 S 8 10.00 Fair CLR 71.1 61.2 71% 29.89 0.0
07 00:35 S 8 10.00 Fair CLR 71.4 61 70% 29.89 0.0
07 00:15 S 7 10.00 Fair CLR 71.2 61.2 71% 29.89 0.0
06 23:55 S 9 10.00 Fair CLR 72 61 68% 29.89 0.0
06 23:15 S 7 10.00 Fair CLR 72.1 61.2 69% 29.89 0.0
06 22:55 S 10 10.00 Fair CLR 73.4 60.8 65% 29.89 0.0
06 22:35 S 9 10.00 Fair CLR 72.7 61 67% 29.89 0.0
06 22:15 S 6 10.00 Fair CLR 73 60.8 66% 29.89 0.0
06 21:55 S 7 10.00 Fair CLR 72.5 60.4 66% 29.88 0.0
06 21:35 S 7 10.00 Fair CLR 73 60.4 65% 29.89 0.0
06 21:15 S 5 10.00 Partly Cloudy SCT060 74.1 60.4 62% 29.89 0.0
06 20:55 S 6 10.00 Overcast OVC060 75.2 61 61% 77 29.89 0.0
06 20:35 S 5 10.00 Overcast OVC060 74.8 61.2 63% 29.88 0.0
06 20:15 S 3 10.00 Mostly Cloudy BKN060 72.9 61.7 68% 29.88 0.0
06 19:55 Calm 10.00 Partly Cloudy SCT060 73.6 61.3 83.3 73.6 66% 29.87 0.0
06 19:35 SW 6 10.00 Fair CLR 75 61.3 63% 77 29.86 0.0
06 18:55 SW 9 10.00 Fair CLR 79.3 61 54% 81 29.86 0.0
06 18:35 SW 7 10.00 Fair CLR 78.8 61.2 55% 80 29.86 0.0
06 18:15 SW 7 10.00 Fair CLR 79.3 61 54% 81 29.86 0.0
06 17:35 SW 7 10.00 Fair CLR 79.3 59.4 51% 80 29.86 0.0
06 17:15 SW 13 10.00 Fair CLR 79.5 58.3 48% 80 29.88 0.0
06 16:55 SW 16 G 21 10.00 Partly Cloudy SCT065 SCT120 80.4 58.1 47% 81 29.87 0.0
06 16:35 SW 12 10.00 Overcast BKN065 OVC080 80.8 58.1 46% 81 29.87 0.0
06 16:15 SW 22 G 26 10.00 Mostly Cloudy and Breezy SCT065 BKN080 BKN100 81.9 57.6 44% 82 29.9 0.0
06 15:55 SW 14 G 21 10.00 Mostly Cloudy SCT065 BKN090 82.4 58.1 44% 82 29.9 0.0
06 15:35 SW 14 G 24 10.00 Mostly Cloudy BKN065 BKN090 81.3 57.6 44% 81 29.91 0.0
06 15:15 SW 17 G 26 10.00 Partly Cloudy SCT065 81.1 57 44% 81 29.91 0.0
06 14:55 SW 17 G 23 10.00 Partly Cloudy SCT075 81.5 59.2 47% 82 29.92 0.0
06 14:35 SW 17 G 23 10.00 Fair CLR 82.6 60.1 47% 83 29.93 0.0
06 14:15 S 15 10.00 Fair CLR 81.7 61.5 51% 82 29.94 0.0
06 13:55 SW 13 G 24 10.00 Fair CLR 78.6 61 81 64 55% 80 29.95 0.0
06 13:35 S 16 G 24 10.00 Partly Cloudy SCT095 80.1 60.4 51% 81 29.96 0.0
06 13:15 S 16 G 20 10.00 Fair CLR 79.3 60.4 53% 80 29.96 0.0
06 12:55 SW 18 G 22 10.00 Fair CLR 79.7 60.8 53% 81 29.96 0.0
06 12:35 S 13 G 22 10.00 Partly Cloudy SCT110 78.1 61.2 56% 80 29.96 0.0
06 12:15 S 21 G 28 10.00 Mostly Cloudy and Breezy BKN110 78.6 61.2 55% 80 29.97 0.0
06 11:55 SW 13 G 21 10.00 Partly Cloudy SCT110 76.8 61.7 60% 79 29.98 0.0
06 11:35 S 15 G 21 10.00 Fair CLR 77 62.4 61% 79 29.99 0.0
06 11:15 SW 13 G 21 10.00 Fair CLR 75.4 63 65% 77 29.99 0.0
06 10:55 S 12 G 17 10.00 Partly Cloudy SCT110 72.5 62.4 71% 29.99 0.0
06 10:35 SW 13 10.00 Mostly Cloudy BKN110 71.8 62.2 72% 30 0.0
06 10:15 S 14 10.00 Mostly Cloudy BKN120 70.2 61.5 74% 30 0.0
06 09:55 SW 13 10.00 Partly Cloudy SCT120 70.3 61.3 73% 30 0.0
06 09:35 S 12 G 18 10.00 Fair CLR 70.2 61.3 74% 29.99 0.0
06 09:15 S 12 10.00 Fair CLR 69.8 61.3 75% 30 0.0
06 08:55 S 8 10.00 Fair CLR 68.5 61.2 77% 29.99 0.0
06 08:35 S 7 10.00 Fair CLR 66.6 60.8 82% 29.99 0.0
06 07:55 S 7 10.00 Fair CLR 64 60.1 64.6 56.5 87% 30 0.0
06 07:35 S 6 10.00 Fair CLR 62.1 59.5 92% 30 0.0
06 07:15 S 6 10.00 Fair CLR 61 58.5 91% 29.99 0.0
06 06:55 S 5 10.00 Fair CLR 60.3 57.9 92% 29.99 0.0
06 06:35 S 6 10.00 Fair CLR 59.4 57.2 93% 29.99 0.0
06 06:15 S 6 10.00 Fair CLR 59.4 57.2 93% 29.99 0.0
06 05:55 S 7 10.00 Fair CLR 59.7 57 91% 29.98 0.0
06 05:35 S 6 10.00 Fair CLR 59.5 57 91% 29.98 0.0
06 05:15 S 5 10.00 Fair CLR 59.4 57 92% 29.98 0.0
06 04:55 S 5 10.00 Fair CLR 59.2 56.7 91% 29.99 0.0
06 04:35 S 5 10.00 Fair CLR 59.2 56.3 90% 29.99 0.0
06 04:15 S 3 10.00 Fair CLR 58.6 56.1 91% 30 0.0
06 03:55 S 5 10.00 Fair CLR 58.5 55.4 90% 29.99 0.0
06 03:35 S 5 10.00 Fair CLR 59.5 55.8 87% 29.99 0.0
06 03:15 S 5 10.00 Fair CLR 60.1 55.8 86% 29.99 0.0
06 02:55 S 6 10.00 Fair CLR 60.3 55.8 85% 29.99 0.0
06 02:35 S 7 10.00 Fair CLR 60.3 55.8 85% 29.99 0.0
06 02:15 S 6 10.00 Fair CLR 60.1 55.8 86% 29.99 0.0
06 01:55 S 6 10.00 Fair CLR 60.3 55.8 70.5 60.1 85% 30.01 0.0
06 01:35 S 6 10.00 Fair CLR 60.6 55.6 84% 30.01 0.0
06 01:15 S 6 10.00 Fair CLR 61.2 55.6 82% 30.02 0.0
06 00:55 S 6 10.00 Fair CLR 61.7 55.8 81% 30.03 0.0
06 00:35 S 7 10.00 Fair CLR 62.1 55.8 80% 30.03 0.0
06 00:15 S 7 10.00 Fair CLR 62.6 55.8 78% 30.03 0.0
05 23:55 S 8 10.00 Fair CLR 62.6 55.6 78% 30.04 0.0
05 23:35 S 8 10.00 Fair CLR 63.3 55.6 76% 30.03 0.0
05 23:15 S 7 10.00 Fair CLR 63.9 55.6 75% 30.03 0.0
05 22:55 S 7 10.00 Fair CLR 64 55.6 74% 30.03 0.0
05 22:35 S 7 10.00 Fair CLR 64.8 55.8 73% 30.03 0.0
05 22:15 S 8 G 16 10.00 Fair CLR 65.8 55.9 71% 30.03 0.0
05 21:55 S 9 G 18 10.00 Fair CLR 66.2 56.1 70% 30.02 0.0
05 21:35 S 9 10.00 Fair CLR 66.7 56.1 69% 30.02 0.0
05 21:15 S 8 10.00 Fair CLR 67.5 56.3 68% 30.01 0.0
05 20:55 S 6 10.00 Fair CLR 67.6 56.3 67% 30.01 0.0
05 20:35 S 8 10.00 Fair CLR 68.5 56.8 66% 30 0.0
05 20:15 S 6 10.00 Fair CLR 69.6 57 64% 30 0.0
05 19:55 S 8 10.00 Fair CLR 70.5 56.8 82.6 70.3 62% 30 0.0
05 19:35 S 9 G 20 10.00 Fair CLR 72 56.7 59% 29.99 0.0
05 19:15 S 12 G 18 10.00 Fair CLR 72.9 56.3 56% 29.98 0.0
05 18:55 S 12 G 17 10.00 Fair CLR 74.5 55.6 52% 29.98 0.0
05 18:35 S 7 10.00 Fair CLR 75.2 55.2 50% 78 29.98 0.0
05 18:15 S 9 G 22 10.00 Fair CLR 77.2 55 46% 79 29.98 0.0
05 17:55 S 15 G 24 10.00 Fair CLR 78.3 55.8 46% 79 29.98 0.0
05 17:35 S 8 10.00 Fair CLR 78.1 56.3 47% 79 29.98 0.0
05 17:15 S 8 G 21 10.00 Partly Cloudy SCT060 79 56.3 46% 80 29.97 0.0
05 16:55 S 8 G 17 10.00 Partly Cloudy SCT060 78.6 55.8 45% 79 29.98 0.0
05 16:35 S 10 G 17 10.00 Partly Cloudy SCT060 79.7 55 43% 80 29.97 0.0
05 16:15 SW 16 G 24 10.00 Partly Cloudy SCT060 82 54.3 39% 81 29.98 0.0
05 15:55 S 13 G 18 10.00 Partly Cloudy SCT060 81 53.8 39% 81 29.98 0.0
05 15:35 SW 9 G 16 10.00 Partly Cloudy SCT060 81.7 54.1 39% 81 30 0.0
05 15:15 S 15 G 21 10.00 Fair CLR 81.5 54.1 39% 81 30.01 0.0
05 14:55 S 13 G 20 10.00 Partly Cloudy SCT060 80.8 53.6 39% 80 30.02 0.0
05 14:35 S 12 G 16 10.00 Partly Cloudy SCT060 80.1 54 41% 80 30.02 0.0
05 14:15 S 12 10.00 Fair CLR 79.9 53.6 40% 80 30.03 0.0
05 13:55 SW 13 10.00 Fair CLR 79.5 53.8 80.4 59 41% 80 30.03 0.0
05 13:35 SW 10 G 17 10.00 Fair CLR 78.8 53.4 41% 79 30.04 0.0
05 12:55 SW 12 G 18 10.00 Fair CLR 78.3 54.9 45% 79 30.05 0.0
05 12:35 S 14 10.00 Fair CLR 78.3 54.9 45% 79 30.05 0.0
05 12:15 S 15 G 21 10.00 Fair CLR 77.2 54.7 46% 79 30.06 0.0
05 11:55 SW 10 10.00 Fair CLR 76.3 55.9 49% 78 30.06 0.0
05 11:35 S 14 10.00 Fair CLR 76.5 56.3 50% 78 30.07 0.0
05 11:15 SW 15 G 20 10.00 Fair CLR 74.3 55.4 52% 30.07 0.0
05 10:55 SW 13 G 17 10.00 Fair CLR 73.8 55.9 54% 30.07 0.0
05 10:35 SW 12 G 22 10.00 Fair CLR 72.7 55.2 54% 30.06 0.0
05 10:15 SW 13 G 21 10.00 Fair CLR 72 55.8 57% 30.06 0.0
05 09:55 SW 13 10.00 Fair CLR 70.5 55 58% 30.07 0.0
05 09:35 SW 12 G 17 10.00 Fair CLR 69.1 55.4 62% 30.07 0.0
05 09:15 SW 13 10.00 Fair CLR 67.1 55.4 66% 30.07 0.0
05 08:35 SW 12 10.00 Fair CLR 63.9 54.3 71% 30.07 0.0
05 08:15 SW 8 10.00 Fair CLR 61.3 54.3 78% 30.07 0.0
05 07:55 S 8 10.00 Fair CLR 58.6 53.6 59.9 51.8 83% 30.07 0.0
05 07:35 S 5 10.00 Fair CLR 56.7 52.7 87% 30.06 0.0
05 07:15 S 5 10.00 Fair CLR 55.2 51.8 88% 30.06 0.0
05 06:55 S 6 10.00 Fair CLR 53.8 51.3 91% 30.05 0.0
05 06:35 S 5 10.00 Fair CLR 52.5 50.4 92% 30.04 0.0
05 06:15 S 5 10.00 Fair CLR 52.7 50 91% 30.04 0.0
05 05:55 S 5 10.00 Fair CLR 53.6 50.2 88% 30.03 0.0
05 05:35 S 5 10.00 Fair CLR 53.8 50.2 88% 30.03 0.0
05 05:15 S 5 10.00 Fair CLR 53.6 50 88% 30.03 0.0
05 04:55 S 3 10.00 Fair CLR 53.8 49.6 86% 30.02 0.0
05 04:35 S 3 10.00 Fair CLR 54.1 49.6 85% 30.02 0.0
05 04:15 S 5 10.00 Fair CLR 53.2 49.5 87% 30.02 0.0
05 03:55 S 5 10.00 Fair CLR 54.3 49.5 84% 30.01 0.0
05 03:35 Calm 10.00 Fair CLR 54.1 49.5 84% 30.01 0.0
05 03:15 Calm 10.00 Fair CLR 54.5 49.6 84% 30.01 0.0
05 02:55 S 3 10.00 Fair CLR 56.1 49.8 80% 30.01 0.0
05 02:35 S 3 10.00 Fair CLR 58.8 49.8 72% 30.01 0.0
05 02:15 S 7 10.00 Fair CLR 59 50 72% 30.01 0.0
05 01:55 S 8 10.00 Fair CLR 59.5 50 68.2 59 71% 30.01 0.0
05 01:35 S 8 10.00 Fair CLR 60.1 50 70% 30.02 0.0
05 01:15 S 7 10.00 Fair CLR 60.4 49.8 68% 30.02 0.0
05 00:55 S 9 10.00 Fair CLR 60.3 50 69% 30.02 0.0
05 00:35 S 5 10.00 Fair CLR 60.8 49.8 67% 30.02 0.0
05 00:15 S 7 10.00 Fair CLR 61.3 50 66% 30.02 0.0
04 23:55 S 8 10.00 Fair CLR 61.7 50 66% 30.02 0.0
04 23:35 S 8 10.00 Fair CLR 61.5 50 66% 30.02 0.0
04 23:15 S 7 10.00 Fair CLR 62.2 50 64% 30.02 0.0
04 22:55 S 9 10.00 Fair CLR 62.8 50.2 64% 30.02 0.0
04 22:35 S 10 G 17 10.00 Fair CLR 63.1 50.4 63% 30.02 0.0
04 22:15 S 8 10.00 Fair CLR 63.5 50.2 62% 30.01 0.0
04 21:55 S 8 10.00 Fair CLR 64 50 60% 30.01 0.0
04 21:35 S 10 G 16 10.00 Fair CLR 65.1 49.6 57% 30 0.0
04 21:15 S 10 G 16 10.00 Fair CLR 65.1 49.6 57% 29.99 0.0
04 20:55 S 9 10.00 Fair CLR 65.8 49.6 56% 29.99 0.0
04 20:35 S 9 10.00 Fair CLR 66.4 50.5 57% 29.98 0.0
04 20:15 S 8 10.00 Fair CLR 67.5 51.1 56% 29.98 0.0
04 19:55 S 9 10.00 Fair CLR 68.4 52.2 79.2 68.2 56% 29.97 0.0
04 19:35 S 12 10.00 Fair CLR 70 52.3 54% 29.96 0.0
04 19:15 S 14 10.00 Fair CLR 71.6 53.1 52% 29.95 0.0
04 18:55 S 16 G 21 10.00 Fair CLR 73 53.2 50% 29.95 0.0
04 18:35 S 10 10.00 Fair CLR 76.5 44.6 32% 78 29.94 0.0
04 18:15 SW 10 10.00 Fair CLR 77.2 44.4 31% 78 29.94 0.0
04 17:55 SW 13 G 20 10.00 Fair CLR 77.7 44.4 31% 78 29.94 0.0
04 17:35 SW 14 G 20 10.00 Fair CLR 78.1 45 31% 78 29.95 0.0
04 17:15 SW 15 10.00 Fair CLR 78.4 44.6 30% 78 29.95 0.0
04 16:55 SW 16 10.00 Fair CLR 78.6 44.8 30% 78 29.95 0.0
04 16:35 SW 14 G 21 10.00 Fair CLR 78.6 44.4 30% 78 29.95 0.0
04 16:15 SW 16 G 22 10.00 Fair CLR 78.4 43.9 29% 78 29.96 0.0
04 15:55 S 13 G 24 10.00 Fair CLR 78.4 43.5 29% 78 29.96 0.0
04 15:35 SW 15 G 25 10.00 Fair CLR 78.3 43.3 29% 78 29.96 0.0
04 15:15 SW 17 G 22 10.00 Fair CLR 78.4 45 31% 78 29.97 0.0
04 14:55 SW 14 G 20 10.00 Fair CLR 77.5 45.1 32% 78 29.98 0.0
04 14:35 SW 20 G 24 10.00 Fair CLR 77.5 45.1 32% 78 29.98 0.0
04 14:15 SW 13 G 20 10.00 Fair CLR 76.3 46 34% 78 29.99 0.0
04 13:55 SW 16 10.00 Fair CLR 77 45.9 77.7 54.1 33% 78 30 0.0
04 13:35 SW 16 10.00 Fair CLR 76.1 46.8 35% 78 30.01 0.0
04 13:15 SW 15 10.00 Fair CLR 75.6 47.7 37% 78 30.02 0.0
04 12:55 SW 13 G 18 10.00 Fair CLR 74.5 46.8 37% 30.02 0.0
04 12:35 SW 10 10.00 Fair CLR 74.3 48.6 40% 30.02 0.0
04 12:15 SW 13 10.00 Fair CLR 73.2 47.8 41% 30.03 0.0
04 11:55 SW 10 G 18 10.00 Fair CLR 72.9 49.1 43% 30.03 0.0
04 11:35 SW 14 10.00 Fair CLR 72 49.6 45% 30.04 0.0
04 11:15 SW 13 10.00 Fair CLR 71.6 50.4 47% 30.05 0.0
04 10:55 SW 12 G 17 10.00 Fair CLR 69.6 50.5 51% 30.05 0.0
04 10:35 SW 10 G 17 10.00 Fair CLR 68.4 51.1 54% 30.05 0.0
04 10:15 SW 12 G 17 10.00 Fair CLR 67.5 51.4 57% 30.05 0.0
04 09:55 SW 13 10.00 Fair CLR 66.2 52 60% 30.05 0.0
04 09:35 SW 10 10.00 Fair CLR 64.6 52 64% 30.05 0.0
04 09:15 SW 10 10.00 Fair CLR 62.1 51.6 69% 30.06 0.0
04 08:55 SW 10 0.00 Fair CLR 59.9 51.4 74% 30.06 0.0
04 08:35 SW 7 10.00 Fair CLR 56.7 50.5 80% 30.07 0.0
04 08:15 SW 8 0.00 NULL NULL 54.7 49.8 84% 30.07 0.0
04 08:00 S 7 0.00 NULL NULL 0 0 0% 30.07 0.0
04 07:35 S 7 10.00 Fair CLR 49.8 47.3 91% 47 30.07 0.0
04 07:15 S 5 10.00 Fair CLR 48 46 93% 47 30.07 0.0
04 06:55 S 3 10.00 Fair CLR 46.6 45 94% 30.07 0.0
04 06:35 S 5 10.00 Fair CLR 45.5 43.9 94% 44 30.07 0.0
04 06:15 S 5 10.00 Fair CLR 46 44.1 93% 44 30.07 0.0
04 05:55 S 6 10.00 Fair CLR 46.4 44.1 92% 44 30.06 0.0
04 05:35 S 3 10.00 Fair CLR 45.1 43.2 93% 30.07 0.0
04 05:15 S 3 10.00 Fair CLR 43.2 41.5 94% 30.07 0.0
04 04:55 S 3 10.00 Partly Cloudy SCT120 43 41.2 93% 30.07 0.0
04 04:35 S 3 10.00 Partly Cloudy SCT120 42.1 40.5 94% 30.07 0.0
04 04:15 S 3 10.00 Fair CLR 43 41.2 93% 30.07 0.0
04 03:55 Calm 10.00 Fair CLR 40.8 39.4 95% 30.07 0.0
04 03:35 Calm 10.00 Fair CLR 40.3 39.2 96% 30.07 0.0
04 03:15 Calm 10.00 Fair CLR 40.5 39 95% 30.08 0.0
04 02:55 Calm 10.00 Fair CLR 39.9 39 97% 30.07 0.0
04 02:35 Calm 10.00 Fair CLR 40.3 39.4 97% 30.07 0.0
04 02:15 Calm 10.00 Fair CLR 41 40.1 97% 30.07 0.0
04 01:55 Calm 10.00 Fair CLR 41.2 40.1 54 40.1 96% 30.07 0.0
04 01:35 Calm 10.00 Fair CLR 41.2 39.6 94% 30.08 0.0
Date Time (edt) Wind (mph) Vis. (mi.) Weather Sky Cond. Air Dwpt Max. Min. Relative Humidity Wind Chill (°F) Heat Index (°F) altimeter (in) sea level (mb) 1 hr 3 hr 6 hr
6 hour
Temperature (ºF) Pressure Precipitation (in)